Time;durP1;ratioP1;P1;durP2;ratioP2;P2;SDS_P1;SDS_P2;PMS_P1;PMS_P2;Temp;Humidity;BMP_temperature;BMP_pressure;BME280_temperature;BME280_humidity;BME280_pressure;Samples;Min_cycle;Max_cycle;Signal;HPM_P1;HPM_P2
2022/04/14 00:00:49;;;;;;;13.20;8.47;;;;;;;7.51;90.97;100890.75;5004358;28;20300;-74
2022/04/14 00:03:15;;;;;;;9.53;7.63;;;;;;;7.47;92.32;100891.63;5008410;28;20229;-71
2022/04/14 00:05:41;;;;;;;11.07;7.97;;;;;;;7.46;92.58;100884.75;5011929;28;20205;-74
2022/04/14 00:08:08;;;;;;;15.00;8.47;;;;;;;7.46;91.98;100886.47;5009393;28;20196;-73
2022/04/14 00:10:35;;;;;;;11.37;7.90;;;;;;;7.43;92.97;100879.59;5008866;28;20220;-74
2022/04/14 00:13:01;;;;;;;11.70;8.13;;;;;;;7.41;92.45;100885.66;5007429;28;20201;-74
2022/04/14 00:15:29;;;;;;;11.60;8.90;;;;;;;7.37;93.35;100880.50;4991033;28;20208;-74
2022/04/14 00:17:55;;;;;;;11.60;7.97;;;;;;;7.36;93.41;100880.50;5003220;28;20809;-74
2022/04/14 00:20:22;;;;;;;9.33;7.30;;;;;;;7.34;93.44;100872.75;5002214;28;20207;-73
2022/04/14 00:22:48;;;;;;;9.13;7.73;;;;;;;7.33;93.39;100877.94;5008301;28;20205;-74
2022/04/14 00:25:15;;;;;;;10.80;7.97;;;;;;;7.31;93.32;100874.50;5003441;28;20193;-74
2022/04/14 00:27:41;;;;;;;12.83;8.57;;;;;;;7.28;93.73;100866.75;5010672;28;20197;-74
2022/04/14 00:30:10;;;;;;;11.47;8.13;;;;;;;7.27;93.53;100876.25;4987036;28;20208;-73
2022/04/14 00:32:38;;;;;;;12.10;8.30;;;;;;;7.26;93.93;100871.09;5000750;28;20271;-74
2022/04/14 00:35:05;;;;;;;12.03;8.23;;;;;;;7.26;93.56;100877.13;5007504;28;20201;-74
2022/04/14 00:37:32;;;;;;;12.77;9.53;;;;;;;7.26;94.25;100871.94;4988102;28;20232;-73
2022/04/14 00:39:58;;;;;;;12.33;8.53;;;;;;;7.25;93.54;100869.38;5007924;28;20200;-74
2022/04/14 00:42:25;;;;;;;12.30;8.43;;;;;;;7.26;93.93;100869.34;5008623;28;20217;-74
2022/04/14 00:44:51;;;;;;;12.13;8.63;;;;;;;7.26;93.74;100871.09;5000537;28;20563;-74
2022/04/14 00:47:18;;;;;;;12.50;8.30;;;;;;;7.26;94.26;100864.16;5005810;28;20200;-74
2022/04/14 00:49:47;;;;;;;15.27;8.60;;;;;;;7.26;94.17;100874.53;4989489;28;20739;-74
2022/04/14 00:52:15;;;;;;;10.33;8.57;;;;;;;7.26;94.54;100869.34;5009060;28;20220;-74
2022/04/14 00:54:42;;;;;;;14.67;9.10;;;;;;;7.26;94.63;100874.53;5011010;28;20206;-74
2022/04/14 00:57:09;;;;;;;12.67;8.80;;;;;;;7.27;94.78;100878.00;5003133;28;20201;-74
2022/04/14 00:59:35;;;;;;;11.03;8.10;;;;;;;7.28;94.36;100882.31;5004331;28;20208;-74
2022/04/14 01:02:03;;;;;;;11.13;7.73;;;;;;;7.30;93.94;100875.34;4997761;28;20251;-74
2022/04/14 01:04:32;;;;;;;10.47;8.40;;;;;;;7.32;93.92;100868.44;5001454;28;20212;-74
2022/04/14 01:07:00;;;;;;;13.33;9.70;;;;;;;7.35;94.00;100873.59;5004573;28;20204;-74
2022/04/14 01:09:28;;;;;;;11.73;8.27;;;;;;;7.35;94.32;100877.06;4988944;28;20197;-74
2022/04/14 01:11:57;;;;;;;11.07;7.43;;;;;;;7.35;94.79;100879.66;4992383;28;20224;-73
2022/04/14 01:14:26;;;;;;;9.97;8.07;;;;;;;7.36;94.51;100881.38;5003083;28;20192;-73
2022/04/14 01:16:53;;;;;;;14.73;8.90;;;;;;;7.36;94.51;100876.19;5003595;28;20223;-74
2022/04/14 01:19:19;;;;;;;12.60;8.80;;;;;;;7.38;94.48;100873.56;5004139;28;20204;-74
2022/04/14 01:21:52;;;;;;;11.83;8.87;;;;;;;7.42;95.07;100879.59;5004959;28;20228;-73
2022/04/14 01:24:20;;;;;;;11.23;8.87;;;;;;;7.42;94.67;100874.41;5006601;28;20202;-73
2022/04/14 01:26:46;;;;;;;11.73;9.87;;;;;;;7.41;94.76;100878.75;5004358;28;20710;-74
2022/04/14 01:29:21;;;;;;;12.57;10.20;;;;;;;7.39;95.08;100878.75;5001155;28;20205;-73
2022/04/14 01:31:48;;;;;;;14.37;10.23;;;;;;;7.41;95.51;100885.66;4986425;28;20255;-74
2022/04/14 01:34:14;;;;;;;13.10;9.43;;;;;;;7.38;94.97;100882.19;5006118;28;20208;-74
2022/04/14 01:36:40;;;;;;;13.50;9.50;;;;;;;7.38;96.45;100877.00;5010095;28;20692;-74
2022/04/14 01:39:08;;;;;;;11.23;9.07;;;;;;;7.38;96.02;100882.19;4981274;28;20223;-73
2022/04/14 01:41:35;;;;;;;15.17;10.77;;;;;;;7.36;96.70;100881.38;4988533;28;20243;-74
2022/04/14 01:44:02;;;;;;;12.80;9.63;;;;;;;7.35;96.38;100882.25;5004539;28;20193;-74
2022/04/14 01:46:28;;;;;;;12.53;9.27;;;;;;;7.37;97.01;100875.31;5003361;28;20204;-74
2022/04/14 01:48:55;;;;;;;11.93;9.20;;;;;;;7.36;96.97;100877.91;5009084;28;20203;-74
2022/04/14 01:51:21;;;;;;;12.90;8.97;;;;;;;7.35;97.13;100877.06;4986245;28;20235;-73
2022/04/14 01:53:48;;;;;;;12.83;8.73;;;;;;;7.32;96.90;100881.41;4996065;28;20205;-74
2022/04/14 01:56:14;;;;;;;10.80;8.57;;;;;;;7.33;97.03;100881.38;5005480;28;20204;-74
2022/04/14 01:58:42;;;;;;;13.17;10.07;;;;;;;7.29;97.53;100879.69;5001514;28;20530;-74
2022/04/14 02:01:09;;;;;;;11.30;8.97;;;;;;;7.29;97.70;100881.44;5001503;28;20698;-74
2022/04/14 02:03:36;;;;;;;11.40;9.10;;;;;;;7.27;97.68;100881.44;5002681;28;20197;-74
2022/04/14 02:06:02;;;;;;;14.03;8.67;;;;;;;7.26;97.65;100884.91;5007991;28;20235;-73
2022/04/14 02:08:29;;;;;;;11.77;9.27;;;;;;;7.24;97.68;100885.81;5000457;28;20196;-74
2022/04/14 02:10:55;;;;;;;13.67;9.50;;;;;;;7.22;97.82;100891.00;5010616;28;20227;-74
2022/04/14 02:13:22;;;;;;;18.90;9.13;;;;;;;7.22;97.93;100890.16;5004961;28;20200;-73
2022/04/14 02:15:50;;;;;;;11.50;8.17;;;;;;;7.19;98.01;100886.72;5012203;28;20209;-74
2022/04/14 02:18:16;;;;;;;11.77;8.83;;;;;;;7.17;98.17;100887.56;5009979;28;20188;-73
2022/04/14 02:20:43;;;;;;;11.37;8.80;;;;;;;7.13;97.98;100883.31;4996336;28;20384;-74
2022/04/14 02:23:09;;;;;;;10.87;8.60;;;;;;;7.09;98.22;100881.59;5004456;28;20197;-74
2022/04/14 02:25:35;;;;;;;14.03;8.83;;;;;;;7.05;98.30;100885.06;5001392;28;20566;-74
2022/04/14 02:28:02;;;;;;;12.93;9.27;;;;;;;7.01;98.44;100882.50;5007827;28;20192;-74
2022/04/14 02:30:28;;;;;;;13.60;9.67;;;;;;;6.98;98.93;100882.53;5004520;28;20205;-73
2022/04/14 02:32:56;;;;;;;12.27;9.43;;;;;;;6.95;99.54;100885.16;5004652;28;20214;-74
2022/04/14 02:35:23;;;;;;;14.10;10.93;;;;;;;6.93;99.95;100886.03;5000120;28;20233;-73
2022/04/14 02:37:49;;;;;;;13.63;10.43;;;;;;;6.91;100.00;100892.94;5008009;28;20201;-74
2022/04/14 02:40:15;;;;;;;12.97;9.10;;;;;;;6.86;100.00;100880.03;4989850;28;20209;-71
2022/04/14 02:42:43;;;;;;;13.00;9.60;;;;;;;6.82;100.00;100883.50;5012259;28;20204;-74
2022/04/14 02:45:10;;;;;;;12.53;8.97;;;;;;;6.79;100.00;100892.19;5009788;28;20199;-73
2022/04/14 02:47:36;;;;;;;14.70;10.87;;;;;;;6.73;100.00;100891.34;4997783;28;20206;-73
2022/04/14 02:50:05;;;;;;;13.90;11.10;;;;;;;6.67;100.00;100892.25;5001918;28;20205;-74
2022/04/14 02:52:32;;;;;;;13.13;10.87;;;;;;;6.64;100.00;100897.44;5009261;28;20688;-74
2022/04/14 02:54:58;;;;;;;16.47;10.53;;;;;;;6.60;100.00;100891.41;5006552;28;20211;-74
2022/04/14 02:57:24;;;;;;;13.53;10.77;;;;;;;6.55;100.00;100895.75;5003823;28;20207;-74
2022/04/14 02:59:51;;;;;;;15.07;10.90;;;;;;;6.56;100.00;100891.44;5001072;28;20209;-72
2022/04/14 03:02:17;;;;;;;13.83;10.90;;;;;;;6.53;100.00;100886.28;5001766;28;20217;-73
2022/04/14 03:04:43;;;;;;;16.90;10.93;;;;;;;6.47;100.00;100889.75;5003087;28;20216;-74
2022/04/14 03:07:12;;;;;;;14.77;10.33;;;;;;;6.39;100.00;100889.78;5012106;28;20200;-74
2022/04/14 03:09:38;;;;;;;16.70;11.50;;;;;;;6.34;100.00;100890.69;5008970;28;20209;-74
2022/04/14 03:12:05;;;;;;;14.00;11.50;;;;;;;6.26;100.00;100890.69;5017912;28;20217;-74
2022/04/14 03:14:32;;;;;;;13.50;10.73;;;;;;;6.17;100.00;100889.00;5000969;28;20212;-74
2022/04/14 03:16:58;;;;;;;17.03;11.43;;;;;;;6.11;100.00;100886.47;5007396;28;20199;-74
2022/04/14 03:19:25;;;;;;;14.67;11.43;;;;;;;6.06;100.00;100890.78;5012699;28;20198;-73
2022/04/14 03:21:52;;;;;;;17.67;11.77;;;;;;;6.01;100.00;100883.03;5003808;28;20220;-73
2022/04/14 03:24:20;;;;;;;14.70;11.63;;;;;;;5.97;100.00;100886.50;4988586;28;20236;-74
2022/04/14 03:26:46;;;;;;;20.43;14.27;;;;;;;6.03;100.00;100886.50;5005487;28;20228;-74
2022/04/14 03:29:13;;;;;;;14.37;11.40;;;;;;;5.92;100.00;100884.75;5007619;28;20200;-73
2022/04/14 03:31:39;;;;;;;15.73;12.50;;;;;;;5.85;100.00;100882.19;4991226;28;20229;-73
2022/04/14 03:34:06;;;;;;;17.57;12.57;;;;;;;5.84;100.00;100880.47;5011101;28;20207;-74
2022/04/14 03:36:32;;;;;;;18.80;13.30;;;;;;;5.80;100.00;100881.31;5011900;28;20208;-74
2022/04/14 03:38:58;;;;;;;16.13;11.90;;;;;;;5.68;100.00;100877.06;5001277;28;20201;-73
2022/04/14 03:41:26;;;;;;;25.43;19.03;;;;;;;5.78;100.00;100879.63;5005007;28;20711;-73
2022/04/14 03:43:52;;;;;;;17.63;14.37;;;;;;;5.74;100.00;100883.09;5007997;28;20222;-72
2022/04/14 03:46:19;;;;;;;21.60;15.10;;;;;;;5.64;100.00;100871.88;5001344;28;20209;-72
2022/04/14 03:48:45;;;;;;;17.27;13.63;;;;;;;5.60;100.00;100872.75;5009010;28;20224;-73
2022/04/14 03:51:14;;;;;;;17.53;13.73;;;;;;;5.64;100.00;100870.16;4989276;28;20232;-74
2022/04/14 03:53:40;;;;;;;16.97;13.23;;;;;;;5.57;100.00;100868.44;5007680;28;20193;-74
2022/04/14 03:56:07;;;;;;;15.83;12.70;;;;;;;5.54;100.00;100865.88;5000010;28;20198;-74
2022/04/14 03:58:35;;;;;;;16.20;12.53;;;;;;;5.50;100.00;100869.31;4987201;28;20202;-73
2022/04/14 04:01:01;;;;;;;14.50;11.77;;;;;;;5.47;100.00;100867.59;5006862;28;20300;-74
2022/04/14 04:03:28;;;;;;;15.87;11.70;;;;;;;5.49;100.00;100873.63;5009199;28;20219;-74
2022/04/14 04:05:55;;;;;;;14.90;11.20;;;;;;;5.45;100.00;100882.28;5003424;28;20211;-74
2022/04/14 04:08:22;;;;;;;15.43;11.40;;;;;;;5.38;100.00;100882.25;5010159;28;20220;-74
2022/04/14 04:10:48;;;;;;;18.20;12.40;;;;;;;5.33;100.00;100879.69;5017897;28;20221;-74
2022/04/14 04:13:14;;;;;;;19.30;13.00;;;;;;;5.35;100.00;100875.38;5006781;28;20220;-74
2022/04/14 04:15:42;;;;;;;18.77;13.83;;;;;;;5.28;100.00;100877.09;5003070;28;20219;-74
2022/04/14 04:18:08;;;;;;;24.27;13.53;;;;;;;5.23;100.00;100877.97;5009197;28;20203;-74
2022/04/14 04:20:35;;;;;;;18.40;11.93;;;;;;;5.18;100.00;100883.13;5019776;28;20713;-74
2022/04/14 04:23:04;;;;;;;21.70;12.67;;;;;;;5.24;100.00;100887.44;4989602;28;20242;-74
2022/04/14 04:25:30;;;;;;;16.13;11.80;;;;;;;5.18;100.00;100892.63;5009945;28;20201;-74
2022/04/14 04:27:57;;;;;;;20.70;12.77;;;;;;;5.11;100.00;100897.75;5016823;28;20947;-74
2022/04/14 04:30:24;;;;;;;18.40;11.63;;;;;;;5.16;100.00;100899.50;5002452;28;20242;-74
2022/04/14 04:32:52;;;;;;;18.47;12.03;;;;;;;5.13;100.00;100903.78;5018885;28;20932;-74
2022/04/14 04:35:18;;;;;;;16.17;10.53;;;;;;;5.17;100.00;100904.69;5007363;28;20193;-74
2022/04/14 04:37:44;;;;;;;15.67;11.60;;;;;;;5.21;100.00;100896.06;5004961;28;20205;-74
2022/04/14 04:40:11;;;;;;;15.40;10.73;;;;;;;5.19;100.00;100899.50;4993389;28;20217;-74
2022/04/14 04:42:38;;;;;;;16.97;10.03;;;;;;;5.13;100.00;100901.22;4990777;28;20209;-74
2022/04/14 04:45:05;;;;;;;16.60;10.70;;;;;;;5.11;100.00;100896.91;5005280;28;20319;-74
2022/04/14 04:47:32;;;;;;;16.60;11.10;;;;;;;5.13;100.00;100901.22;4996805;28;20212;-74
2022/04/14 04:50:00;;;;;;;13.07;10.43;;;;;;;5.13;100.00;100898.63;5004740;28;20208;-74
2022/04/14 04:52:26;;;;;;;13.70;10.97;;;;;;;5.15;100.00;100908.13;5007101;28;20736;-74
2022/04/14 04:54:53;;;;;;;15.83;11.13;;;;;;;5.23;100.00;100915.00;5007365;28;20724;-74
2022/04/14 04:57:19;;;;;;;14.60;10.93;;;;;;;5.28;100.00;100912.44;5004262;28;20543;-74
2022/04/14 04:59:46;;;;;;;16.77;11.17;;;;;;;5.36;100.00;100915.03;5002326;28;20666;-74
2022/04/14 05:02:12;;;;;;;17.70;10.80;;;;;;;5.36;100.00;100921.03;5006037;28;20311;-74
2022/04/14 05:04:39;;;;;;;15.53;10.17;;;;;;;5.38;100.00;100921.03;5003786;28;20215;-74
2022/04/14 05:07:07;;;;;;;14.67;11.00;;;;;;;5.48;100.00;100920.19;4994979;28;20209;-73
2022/04/14 05:09:34;;;;;;;14.07;11.03;;;;;;;5.52;100.00;100924.47;5009187;28;20186;-74
2022/04/14 05:12:00;;;;;;;15.87;10.20;;;;;;;5.57;100.00;100924.50;4999406;28;20649;-74
2022/04/14 05:14:26;;;;;;;18.37;11.73;;;;;;;5.59;100.00;100933.97;4990140;28;20208;-74
2022/04/14 05:16:53;;;;;;;15.73;11.43;;;;;;;5.67;100.00;100936.56;5009726;28;20214;-74
2022/04/14 05:19:19;;;;;;;17.20;12.50;;;;;;;5.72;100.00;100929.66;5004300;28;20627;-74
2022/04/14 05:21:48;;;;;;;15.90;11.20;;;;;;;5.76;100.00;100933.09;5011239;28;20686;-74
2022/04/14 05:24:16;;;;;;;15.97;11.50;;;;;;;5.80;100.00;100947.75;4999222;28;20213;-74
2022/04/14 05:26:42;;;;;;;18.83;11.43;;;;;;;5.87;100.00;100936.53;5004200;28;20226;-74
2022/04/14 05:29:09;;;;;;;17.03;10.87;;;;;;;5.92;100.00;100934.78;5002970;28;20204;-74
2022/04/14 05:31:35;;;;;;;16.57;12.60;;;;;;;6.00;100.00;100935.69;5003266;28;20311;-74
2022/04/14 05:34:02;;;;;;;17.33;12.70;;;;;;;6.06;100.00;100938.22;5009379;28;20751;-74
2022/04/14 05:36:28;;;;;;;21.43;13.27;;;;;;;6.15;100.00;100942.53;4983107;28;20663;-74
2022/04/14 05:38:54;;;;;;;18.87;13.20;;;;;;;6.22;100.00;100945.97;4998152;28;20208;-74
2022/04/14 05:41:22;;;;;;;21.70;14.40;;;;;;;6.33;100.00;100953.69;4978897;28;20623;-74
2022/04/14 05:43:48;;;;;;;21.03;13.80;;;;;;;6.41;100.00;100945.03;5011384;28;20195;-74
2022/04/14 05:46:15;;;;;;;19.47;13.80;;;;;;;6.52;100.00;100954.50;5011594;28;20203;-74
2022/04/14 05:48:42;;;;;;;15.90;11.70;;;;;;;6.61;100.00;100959.63;5003145;28;20200;-74
2022/04/14 05:51:08;;;;;;;19.60;13.50;;;;;;;6.74;100.00;100970.81;5008063;28;20605;-74
2022/04/14 05:53:35;;;;;;;17.20;13.47;;;;;;;6.87;100.00;100963.84;5000404;28;20220;-74
2022/04/14 05:56:02;;;;;;;18.77;11.47;;;;;;;6.97;100.00;100973.28;5013662;28;20200;-74
2022/04/14 05:58:29;;;;;;;21.80;12.60;;;;;;;7.10;100.00;100971.47;5004815;28;20201;-74
2022/04/14 06:00:56;;;;;;;17.90;13.93;;;;;;;7.23;100.00;100969.66;5016932;28;20216;-74
2022/04/14 06:03:24;;;;;;;17.73;11.83;;;;;;;7.38;100.00;100969.56;4993520;28;20212;-74
2022/04/14 06:05:50;;;;;;;18.10;12.13;;;;;;;7.50;100.00;100966.88;5000236;28;20251;-74
2022/04/14 06:08:17;;;;;;;14.13;11.50;;;;;;;7.64;100.00;100976.28;4997945;28;20608;-74
2022/04/14 06:10:44;;;;;;;17.70;12.27;;;;;;;7.73;100.00;100966.66;5007688;28;20232;-74
2022/04/14 06:13:11;;;;;;;23.27;14.67;;;;;;;7.90;100.00;100963.06;5008912;28;20689;-75
2022/04/14 06:15:39;;;;;;;17.37;12.00;;;;;;;8.04;100.00;100968.97;5013031;28;20211;-74
2022/04/14 06:18:05;;;;;;;14.00;11.70;;;;;;;8.17;100.00;100964.50;5006887;28;20196;-74
2022/04/14 06:20:32;;;;;;;16.10;11.53;;;;;;;8.29;100.00;100973.91;5013020;28;20224;-74
2022/04/14 06:22:59;;;;;;;15.60;10.93;;;;;;;8.47;100.00;100978.91;5001647;28;20200;-74
2022/04/14 06:25:26;;;;;;;15.47;10.57;;;;;;;8.62;100.00;100974.41;5003432;28;20596;-74
2022/04/14 06:27:55;;;;;;;17.73;10.53;;;;;;;8.75;100.00;100976.00;5007107;28;20240;-75
2022/04/14 06:30:21;;;;;;;13.33;10.50;;;;;;;8.93;100.00;100976.63;5014429;28;20250;-74
2022/04/14 06:33:00;;;;;;;19.57;10.27;;;;;;;9.07;99.32;100970.34;4999124;28;20213;-74
2022/04/14 06:35:26;;;;;;;12.77;9.03;;;;;;;9.22;98.98;100973.63;5008630;28;20194;-74
2022/04/14 06:37:53;;;;;;;12.50;9.60;;;;;;;9.33;97.45;100978.66;5014855;28;20189;-74
2022/04/14 06:40:21;;;;;;;11.93;9.00;;;;;;;9.53;96.23;100971.38;5014366;28;20201;-74
2022/04/14 06:42:47;;;;;;;11.53;8.90;;;;;;;9.66;95.67;100978.09;5006883;28;20868;-74
2022/04/14 06:45:14;;;;;;;18.03;9.70;;;;;;;9.82;93.64;100972.66;5014096;28;20251;-75
2022/04/14 06:47:40;;;;;;;12.80;9.17;;;;;;;10.04;93.41;100976.59;5015402;28;20194;-75
2022/04/14 06:50:09;;;;;;;13.07;8.93;;;;;;;10.19;92.24;100971.97;5002899;28;20204;-74
2022/04/14 06:52:38;;;;;;;13.97;9.13;;;;;;;10.36;90.72;100969.06;5007251;28;20232;-74
2022/04/14 06:55:05;;;;;;;10.50;8.30;;;;;;;10.49;90.40;100977.50;5004386;28;20278;-75
2022/04/14 06:57:31;;;;;;;11.30;9.10;;;;;;;10.65;90.76;100976.28;5004475;28;20207;-75
2022/04/14 06:59:57;;;;;;;12.67;8.47;;;;;;;10.76;88.60;100966.50;5007748;28;20704;-75
2022/04/14 07:02:24;;;;;;;13.97;9.00;;;;;;;10.86;88.39;100972.38;5015933;28;20227;-75
2022/04/14 07:04:50;;;;;;;11.63;9.50;;;;;;;10.96;87.67;100973.03;5009304;28;20201;-74
2022/04/14 07:07:18;;;;;;;11.27;8.70;;;;;;;11.10;85.97;100978.81;5009369;28;20472;-73
2022/04/14 07:09:44;;;;;;;10.67;7.73;;;;;;;11.23;85.96;100978.53;4998493;28;20199;-73
2022/04/14 07:12:11;;;;;;;13.97;8.23;;;;;;;11.35;85.93;100973.88;5002397;28;20866;-73
2022/04/14 07:14:38;;;;;;;12.57;8.60;;;;;;;11.47;85.83;100977.94;5005795;28;20303;-73
2022/04/14 07:17:05;;;;;;;13.07;8.63;;;;;;;11.59;84.29;100975.91;5001455;28;20209;-73
2022/04/14 07:19:31;;;;;;;11.97;8.60;;;;;;;11.78;83.31;100981.53;4991456;28;20743;-73
2022/04/14 07:21:58;;;;;;;14.40;8.90;;;;;;;11.89;83.14;100982.13;5004330;28;20702;-73
2022/04/14 07:24:25;;;;;;;13.00;9.07;;;;;;;12.09;80.94;100982.50;5014096;28;20793;-73
2022/04/14 07:26:52;;;;;;;13.67;9.00;;;;;;;12.28;81.94;100979.41;5007527;28;20237;-73
2022/04/14 07:29:18;;;;;;;12.97;9.17;;;;;;;12.38;81.60;100972.97;5001087;28;20210;-73
2022/04/14 07:31:45;;;;;;;12.80;8.70;;;;;;;12.42;80.06;100976.41;5007308;28;20801;-73
2022/04/14 07:34:14;;;;;;;16.43;9.00;;;;;;;12.53;78.95;100981.31;5006987;28;20790;-73
2022/04/14 07:36:40;;;;;;;15.93;9.53;;;;;;;12.72;79.36;100972.03;5009393;28;20203;-73
2022/04/14 07:39:06;;;;;;;12.10;8.80;;;;;;;12.73;79.26;100978.97;5006905;28;20682;-73
2022/04/14 07:41:35;;;;;;;12.03;9.00;;;;;;;12.87;79.62;100968.09;5001127;28;20846;-73
2022/04/14 07:44:01;;;;;;;11.87;9.17;;;;;;;13.01;78.70;100973.75;5008786;28;20207;-73
2022/04/14 07:46:27;;;;;;;12.57;9.07;;;;;;;13.18;76.58;100981.09;5000376;28;20202;-73
2022/04/14 07:48:54;;;;;;;16.17;9.33;;;;;;;13.43;75.66;100969.88;5000868;28;20669;-73
2022/04/14 07:51:20;;;;;;;13.90;9.63;;;;;;;13.52;74.77;100984.44;5003846;28;20223;-73
2022/04/14 07:53:46;;;;;;;14.03;9.90;;;;;;;13.60;73.68;100985.06;5003284;28;20227;-73
2022/04/14 07:56:15;;;;;;;12.90;9.27;;;;;;;13.76;73.64;100978.38;4997640;28;20216;-73
2022/04/14 07:58:45;;;;;;;16.57;10.33;;;;;;;13.92;69.48;100989.19;5001156;28;20740;-74
2022/04/14 08:01:11;;;;;;;18.10;10.17;;;;;;;14.07;69.69;100993.06;5004646;28;20736;-73
2022/04/14 08:03:39;;;;;;;16.70;10.60;;;;;;;14.20;69.33;100990.88;5008544;28;20205;-73
2022/04/14 08:06:05;;;;;;;16.83;10.47;;;;;;;14.28;68.70;100991.47;5000669;28;20374;-73
2022/04/14 08:08:32;;;;;;;15.07;10.53;;;;;;;14.38;68.27;100992.81;5005080;28;20202;-73
2022/04/14 08:11:03;;;;;;;17.67;10.77;;;;;;;14.41;67.70;100994.47;5005171;28;20220;-73
2022/04/14 08:13:32;;;;;;;18.93;11.07;;;;;;;14.58;67.35;101005.25;5004349;28;20242;-74
2022/04/14 08:16:03;;;;;;;17.67;11.33;;;;;;;14.55;65.06;101007.09;5003334;28;20224;-73
2022/04/14 08:18:29;;;;;;;21.20;14.77;;;;;;;14.61;66.89;101006.91;5001040;28;20215;-73
2022/04/14 08:20:57;;;;;;;22.23;15.40;;;;;;;14.64;66.68;101009.41;5000893;28;20773;-73
2022/04/14 08:23:23;;;;;;;23.20;15.80;;;;;;;14.80;66.13;101012.31;5003199;28;20624;-73
2022/04/14 08:25:50;;;;;;;19.67;12.90;;;;;;;14.88;67.96;101006.78;5002018;28;20207;-73
2022/04/14 08:28:17;;;;;;;17.70;11.97;;;;;;;14.84;65.54;101011.28;4999097;28;20632;-73
2022/04/14 08:30:44;;;;;;;17.67;11.80;;;;;;;14.94;67.16;101011.81;5004750;28;20224;-74
2022/04/14 08:33:13;;;;;;;15.83;11.00;;;;;;;14.99;66.28;101015.13;4998561;28;20216;-73
2022/04/14 08:35:40;;;;;;;15.60;10.93;;;;;;;14.98;66.90;101012.53;4998815;28;20683;-73
2022/04/14 08:38:08;;;;;;;14.67;11.40;;;;;;;15.05;65.81;101011.38;4980052;28;20212;-73
2022/04/14 08:40:36;;;;;;;14.53;11.23;;;;;;;15.18;64.71;101012.63;5004392;28;20651;-73
2022/04/14 08:43:05;;;;;;;17.10;11.23;;;;;;;15.15;63.37;101018.00;5002388;28;20700;-74
2022/04/14 08:45:33;;;;;;;19.43;12.00;;;;;;;15.26;64.68;101015.78;4994537;28;20686;-73
2022/04/14 08:48:01;;;;;;;14.07;10.90;;;;;;;15.38;62.82;101022.34;4996235;28;20285;-74
2022/04/14 08:50:29;;;;;;;14.93;11.37;;;;;;;15.42;65.23;101013.41;4997317;28;20552;-74
2022/04/14 08:52:56;;;;;;;13.83;11.00;;;;;;;15.58;63.52;101012.78;4998642;28;20196;-73
2022/04/14 08:55:23;;;;;;;16.20;11.37;;;;;;;15.63;64.22;101006.44;4995858;28;20205;-73
2022/04/14 08:57:49;;;;;;;15.57;11.20;;;;;;;15.68;62.54;101011.50;5001297;28;20225;-73
2022/04/14 09:00:17;;;;;;;13.97;9.87;;;;;;;15.79;62.18;101011.09;4998052;28;20197;-73
2022/04/14 09:02:46;;;;;;;15.83;10.67;;;;;;;15.84;60.58;101015.22;4998243;28;20206;-73
2022/04/14 09:05:13;;;;;;;15.07;9.83;;;;;;;15.96;61.06;101016.50;4997848;28;20196;-73
2022/04/14 09:07:41;;;;;;;13.73;10.50;;;;;;;16.06;61.96;101009.09;5001521;28;20200;-74
2022/04/14 09:10:08;;;;;;;14.93;10.43;;;;;;;16.23;58.75;101017.06;5000996;28;20192;-73
2022/04/14 09:12:36;;;;;;;12.83;9.30;;;;;;;16.27;57.05;101023.09;5000339;28;20573;-74
2022/04/14 09:15:03;;;;;;;14.37;9.53;;;;;;;16.26;56.70;101016.09;5004400;28;20632;-74
2022/04/14 09:17:30;;;;;;;15.23;9.83;;;;;;;16.35;59.25;101010.41;4982383;28;20200;-73
2022/04/14 09:19:56;;;;;;;15.40;10.10;;;;;;;16.49;59.40;101011.59;5001902;28;20295;-74
2022/04/14 09:22:23;;;;;;;13.77;9.60;;;;;;;16.54;58.77;101007.84;5000319;28;20224;-73
2022/04/14 09:24:52;;;;;;;14.00;9.37;;;;;;;16.70;58.37;101010.63;5000490;28;20189;-74
2022/04/14 09:27:27;;;;;;;13.50;9.53;;;;;;;16.68;58.13;101009.84;4999735;28;20211;-74
2022/04/14 09:29:56;;;;;;;15.03;9.63;;;;;;;16.75;57.41;101011.28;4996090;28;20200;-74
2022/04/14 09:32:30;;;;;;;14.57;9.87;;;;;;;16.79;58.21;101012.81;4997730;28;20309;-74
2022/04/14 09:34:57;;;;;;;12.67;9.30;;;;;;;16.92;58.90;101017.56;5005134;28;20208;-74
2022/04/14 09:37:25;;;;;;;11.93;9.57;;;;;;;16.87;58.72;101009.91;4999272;28;20793;-73
2022/04/14 09:39:55;;;;;;;14.83;10.00;;;;;;;16.91;54.96;101014.09;5001881;28;20207;-73
2022/04/14 09:42:22;;;;;;;13.17;8.87;;;;;;;17.10;54.08;101013.25;4998047;28;20721;-73
2022/04/14 09:44:50;;;;;;;13.27;9.67;;;;;;;17.22;56.32;101005.59;5005564;28;20578;-73
2022/04/14 09:47:24;;;;;;;12.13;8.33;;;;;;;17.34;56.28;101016.47;5000956;28;20203;-74
2022/04/14 09:49:51;;;;;;;11.77;8.63;;;;;;;17.38;54.62;101012.78;5007106;28;20203;-74
2022/04/14 09:52:17;;;;;;;12.13;9.17;;;;;;;17.43;55.30;101008.13;4995079;28;20227;-73
2022/04/14 09:54:45;;;;;;;12.13;8.53;;;;;;;17.44;55.70;101009.81;4997214;28;20208;-74
2022/04/14 09:57:13;;;;;;;12.77;8.40;;;;;;;17.47;53.92;101006.19;4993397;28;20434;-74
2022/04/14 09:59:40;;;;;;;12.47;8.40;;;;;;;17.50;54.14;101004.25;4996279;28;20225;-74
2022/04/14 10:02:12;;;;;;;13.83;8.90;;;;;;;17.59;54.72;101006.44;4986903;28;20319;-74
2022/04/14 10:04:40;;;;;;;14.57;9.23;;;;;;;17.48;55.92;101007.88;5003707;28;20208;-74
2022/04/14 10:07:09;;;;;;;12.57;8.60;;;;;;;17.56;54.09;101009.22;5004895;28;20729;-75
2022/04/14 10:09:38;;;;;;;14.43;9.73;;;;;;;17.67;52.79;101006.03;4999837;28;20208;-74
2022/04/14 10:12:26;;;;;;;14.43;10.27;;;;;;;17.87;54.13;101010.38;5004158;28;20224;-75
2022/04/14 10:15:01;;;;;;;14.33;8.43;;;;;;;17.98;52.94;101010.66;5003119;28;20219;-75
2022/04/14 10:17:29;;;;;;;13.63;8.77;;;;;;;18.14;52.55;101012.53;5002832;28;20199;-74
2022/04/14 10:19:56;;;;;;;12.80;8.53;;;;;;;18.33;51.45;101008.00;5008328;28;20203;-75
2022/04/14 10:22:23;;;;;;;12.67;8.37;;;;;;;18.43;53.40;101003.06;5005210;28;20578;-76
2022/04/14 10:24:52;;;;;;;14.03;9.00;;;;;;;18.55;51.64;101005.03;5004957;28;20201;-73
2022/04/14 10:27:20;;;;;;;13.60;8.73;;;;;;;18.43;49.78;101021.53;4997945;28;20204;-75
2022/04/14 10:29:48;;;;;;;13.30;9.37;;;;;;;18.35;49.67;101013.19;5008313;28;20204;-75
2022/04/14 10:32:17;;;;;;;14.57;9.00;;;;;;;18.26;49.46;101032.16;4993825;28;20236;-75
2022/04/14 10:34:45;;;;;;;14.30;9.10;;;;;;;18.29;49.64;101040.78;5001158;28;20299;-76
2022/04/14 10:37:19;;;;;;;13.83;9.20;;;;;;;18.47;50.18;101031.03;5014220;28;20197;-74
2022/04/14 10:39:48;;;;;;;14.57;9.43;;;;;;;18.46;49.84;101031.94;4997806;28;20200;-74
2022/04/14 10:42:18;;;;;;;15.47;10.07;;;;;;;18.45;49.50;101027.63;5001271;28;20220;-76
2022/04/14 10:44:46;;;;;;;13.10;8.70;;;;;;;18.55;49.75;101017.41;4996770;28;20684;-73
2022/04/14 10:47:13;;;;;;;13.53;9.10;;;;;;;18.73;50.03;101020.84;4997463;28;20197;-74
2022/04/14 10:49:41;;;;;;;13.13;8.13;;;;;;;18.84;49.54;101029.09;5002028;28;20565;-75
2022/04/14 10:52:23;;;;;;;14.70;8.63;;;;;;;18.92;49.85;101032.13;5009586;28;20212;-75
2022/04/14 10:54:57;;;;;;;12.03;8.57;;;;;;;18.98;50.01;101024.81;4999908;28;20228;-74
2022/04/14 10:57:36;;;;;;;12.17;8.93;;;;;;;19.03;48.94;101031.56;5007047;28;20204;-74
2022/04/14 11:00:39;;;;;;;11.23;8.33;;;;;;;19.10;49.23;101029.44;5006571;28;20224;-75
2022/04/14 11:03:07;;;;;;;12.33;8.17;;;;;;;19.19;49.72;101025.41;5002591;28;20214;-75
2022/04/14 11:05:39;;;;;;;10.23;8.53;;;;;;;19.30;49.66;101023.88;5001728;28;20200;-75
2022/04/14 11:08:24;;;;;;;12.23;8.27;;;;;;;19.49;49.38;101022.84;5003583;28;20192;-74
2022/04/14 11:10:56;;;;;;;13.77;8.53;;;;;;;19.65;48.80;101026.31;5000673;28;20225;-74
2022/04/14 11:13:22;;;;;;;10.17;8.10;;;;;;;19.40;49.32;101024.22;4985275;28;20209;-77
2022/04/14 11:15:52;;;;;;;13.07;7.40;;;;;;;19.49;50.39;101012.28;5004769;28;20813;-74